Time;durP1;ratioP1;P1;durP2;ratioP2;P2;SDS_P1;SDS_P2;PMS_P1;PMS_P2;Temp;Humidity;BMP_temperature;BMP_pressure;BME280_temperature;BME280_humidity;BME280_pressure;Samples;Min_cycle;Max_cycle;Signal;HPM_P1;HPM_P2
2023/08/22 00:01:22;;;;;;;16.00;6.30;;;;;;;19.40;90.95;100798.34;110005;1273;22163;-60
2023/08/22 00:03:56;;;;;;;13.40;5.90;;;;;;;19.40;91.06;100794.80;110021;1277;22207;-57
2023/08/22 00:06:27;;;;;;;14.50;5.60;;;;;;;19.40;91.08;100799.33;109976;1276;22920;-58
2023/08/22 00:08:58;;;;;;;19.10;6.40;;;;;;;19.41;91.18;100804.55;110007;1279;22181;-59
2023/08/22 00:11:29;;;;;;;15.30;5.10;;;;;;;19.43;91.68;100804.09;109966;1280;22429;-60
2023/08/22 00:14:00;;;;;;;15.10;4.30;;;;;;;19.45;91.95;100798.20;110007;1265;22359;-60
2023/08/22 00:16:31;;;;;;;12.40;4.40;;;;;;;19.46;92.15;100798.23;110008;1279;22229;-58
2023/08/22 00:19:02;;;;;;;13.70;5.00;;;;;;;19.47;92.15;100798.90;109997;1277;22250;-58
2023/08/22 00:21:33;;;;;;;14.60;4.80;;;;;;;19.45;91.84;100799.42;109964;1279;22293;-58
2023/08/22 00:24:04;;;;;;;14.80;5.10;;;;;;;19.43;92.05;100799.09;110004;1276;23265;-59
2023/08/22 00:26:35;;;;;;;10.10;3.70;;;;;;;19.41;92.14;100795.81;110021;1279;22304;-57
2023/08/22 00:29:06;;;;;;;11.00;4.60;;;;;;;19.40;91.95;100789.14;109985;1279;23044;-57
2023/08/22 00:31:37;;;;;;;17.20;5.30;;;;;;;19.37;92.04;100792.92;110028;1272;22446;-58
2023/08/22 00:34:08;;;;;;;12.10;4.60;;;;;;;19.35;92.17;100788.19;110014;1279;22300;-60
2023/08/22 00:36:39;;;;;;;12.50;4.00;;;;;;;19.33;92.29;100791.64;110045;1279;22209;-57
2023/08/22 00:39:09;;;;;;;12.90;5.00;;;;;;;19.31;92.41;100792.16;110022;1267;23462;-58
2023/08/22 00:41:40;;;;;;;15.10;5.60;;;;;;;19.30;92.62;100791.70;110030;1269;22169;-58
2023/08/22 00:44:11;;;;;;;15.00;4.70;;;;;;;19.31;93.08;100789.48;110078;1269;22398;-58
2023/08/22 00:46:42;;;;;;;10.50;4.30;;;;;;;19.31;93.08;100791.74;110003;1279;22135;-58
2023/08/22 00:49:14;;;;;;;13.50;5.30;;;;;;;19.29;93.18;100786.05;110006;1279;22439;-59
2023/08/22 00:51:45;;;;;;;13.10;5.20;;;;;;;19.28;93.09;100786.88;110053;1276;22232;-57
2023/08/22 00:54:18;;;;;;;12.10;4.80;;;;;;;19.27;93.14;100784.71;109998;1272;22193;-58
2023/08/22 00:56:50;;;;;;;16.00;4.60;;;;;;;19.25;93.17;100782.48;110022;1279;22433;-58
2023/08/22 00:59:21;;;;;;;14.80;5.30;;;;;;;19.23;93.13;100779.61;110047;1276;22238;-57
2023/08/22 01:01:52;;;;;;;13.00;5.00;;;;;;;19.23;93.16;100780.52;110025;1279;22362;-58
2023/08/22 01:04:23;;;;;;;15.20;4.90;;;;;;;19.21;93.43;100777.41;110036;1279;22325;-58
2023/08/22 01:07:00;;;;;;;15.30;5.20;;;;;;;19.21;93.63;100784.97;110012;1279;23067;-57
2023/08/22 01:09:37;;;;;;;15.30;5.10;;;;;;;19.21;93.80;100782.41;110013;1270;22197;-58
2023/08/22 01:12:14;;;;;;;14.90;5.00;;;;;;;19.19;93.72;100782.07;110051;1269;22427;-58
2023/08/22 01:14:51;;;;;;;13.30;5.50;;;;;;;19.17;93.70;100776.46;110030;1279;22263;-58
2023/08/22 01:17:23;;;;;;;22.20;4.80;;;;;;;19.17;93.75;100773.73;110036;1279;22165;-59
2023/08/22 01:19:54;;;;;;;11.90;4.40;;;;;;;19.16;93.83;100774.92;110026;1277;22872;-58
2023/08/22 01:22:28;;;;;;;18.30;4.90;;;;;;;19.14;93.75;100767.32;109970;1276;22286;-58
2023/08/22 01:24:59;;;;;;;11.70;4.20;;;;;;;19.12;93.75;100767.28;110048;1279;22211;-58
2023/08/22 01:27:32;;;;;;;12.30;4.60;;;;;;;19.11;93.61;100765.55;109977;1279;23270;-58
2023/08/22 01:30:11;;;;;;;11.50;3.80;;;;;;;19.10;93.53;100764.38;110009;1279;23242;-57
2023/08/22 01:32:49;;;;;;;9.50;3.80;;;;;;;19.08;93.68;100765.56;110053;1273;22200;-58
2023/08/22 01:35:23;;;;;;;10.90;3.80;;;;;;;19.04;93.61;100762.46;110041;1277;22251;-61
2023/08/22 01:37:55;;;;;;;14.20;4.20;;;;;;;19.02;93.89;100759.02;110046;1266;22306;-60
2023/08/22 01:40:26;;;;;;;15.20;4.70;;;;;;;19.02;94.39;100759.34;110048;1279;22209;-60
2023/08/22 01:42:57;;;;;;;13.40;3.90;;;;;;;19.03;94.30;100748.20;110019;1275;22366;-58
2023/08/22 01:45:28;;;;;;;11.30;4.20;;;;;;;19.02;94.17;100747.80;109971;1274;23351;-58
2023/08/22 01:47:59;;;;;;;12.10;4.70;;;;;;;18.99;94.10;100746.74;110046;1271;22321;-60
2023/08/22 01:50:30;;;;;;;11.20;3.80;;;;;;;18.96;94.10;100750.59;110047;1277;22179;-60
2023/08/22 01:53:01;;;;;;;13.10;4.10;;;;;;;18.92;94.13;100753.38;110036;1277;22168;-61
2023/08/22 01:55:32;;;;;;;15.10;5.00;;;;;;;18.90;94.21;100754.89;110036;1279;22908;-60
2023/08/22 01:58:04;;;;;;;11.90;3.80;;;;;;;18.88;94.09;100761.08;110061;1268;22190;-60
2023/08/22 02:00:36;;;;;;;10.50;3.90;;;;;;;18.85;94.08;100758.58;110047;1279;22296;-60
2023/08/22 02:03:07;;;;;;;12.10;4.50;;;;;;;18.82;94.12;100757.55;110066;1272;22362;-59
2023/08/22 02:05:38;;;;;;;12.30;4.60;;;;;;;18.78;93.99;100750.30;110080;1276;22300;-60
2023/08/22 02:08:09;;;;;;;9.60;3.90;;;;;;;18.75;94.07;100748.86;110008;1279;22330;-60
2023/08/22 02:10:39;;;;;;;13.30;5.00;;;;;;;18.71;94.37;100747.45;110048;1273;22237;-60
2023/08/22 02:13:10;;;;;;;15.40;5.30;;;;;;;18.68;94.37;100748.75;110033;1270;22172;-60
2023/08/22 02:15:41;;;;;;;11.10;3.80;;;;;;;18.66;94.40;100754.08;110066;1275;22176;-58
2023/08/22 02:18:12;;;;;;;11.70;3.80;;;;;;;18.63;94.29;100759.29;110047;1279;22462;-60
2023/08/22 02:20:42;;;;;;;11.80;4.00;;;;;;;18.62;94.72;100757.44;110009;1274;22312;-58
2023/08/22 02:23:13;;;;;;;8.60;3.60;;;;;;;18.62;95.03;100759.55;110062;1277;22278;-58
2023/08/22 02:25:44;;;;;;;12.70;3.10;;;;;;;18.59;94.87;100756.31;110023;1276;22274;-59
2023/08/22 02:28:15;;;;;;;11.80;4.10;;;;;;;18.57;95.17;100756.32;110041;1274;23159;-59
2023/08/22 02:30:46;;;;;;;11.20;2.80;;;;;;;18.58;95.14;100754.15;110000;1269;22379;-60
2023/08/22 02:33:17;;;;;;;8.30;2.90;;;;;;;18.54;94.81;100749.23;110025;1274;22356;-58
2023/08/22 02:35:48;;;;;;;11.00;3.10;;;;;;;18.52;94.65;100748.33;110012;1279;22404;-62
2023/08/22 02:38:19;;;;;;;12.00;3.30;;;;;;;18.48;94.52;100748.05;109978;1273;22263;-58
2023/08/22 02:40:50;;;;;;;13.50;3.80;;;;;;;18.46;94.49;100747.73;110015;1271;22249;-59
2023/08/22 02:43:20;;;;;;;12.80;3.40;;;;;;;18.43;94.53;100753.50;109994;1279;22630;-58
2023/08/22 02:45:51;;;;;;;18.20;3.70;;;;;;;18.40;94.66;100753.96;110017;1267;23310;-59
2023/08/22 02:48:22;;;;;;;11.50;3.80;;;;;;;18.39;94.65;100754.83;110027;1276;22940;-58
2023/08/22 02:50:53;;;;;;;12.60;4.20;;;;;;;18.39;94.91;100751.20;110005;1279;22239;-60
2023/08/22 02:53:24;;;;;;;12.50;4.00;;;;;;;18.38;95.03;100745.44;110009;1273;22442;-60
2023/08/22 02:55:55;;;;;;;11.60;3.30;;;;;;;18.36;95.07;100746.11;110020;1265;22335;-60
2023/08/22 02:58:26;;;;;;;12.70;4.50;;;;;;;18.34;95.11;100741.10;110005;1276;22202;-58
2023/08/22 03:00:56;;;;;;;14.80;4.10;;;;;;;18.33;95.17;100735.99;110041;1279;22235;-57
2023/08/22 03:03:28;;;;;;;11.60;3.30;;;;;;;18.32;95.12;100731.23;109988;1266;23031;-60
2023/08/22 03:06:01;;;;;;;15.00;3.90;;;;;;;18.30;95.13;100730.92;110021;1280;22203;-59
2023/08/22 03:08:32;;;;;;;10.00;3.90;;;;;;;18.27;95.17;100728.69;110008;1279;22199;-59
2023/08/22 03:11:03;;;;;;;11.50;4.70;;;;;;;18.24;95.24;100726.80;109990;1279;22958;-60
2023/08/22 03:13:34;;;;;;;9.40;3.00;;;;;;;18.23;95.68;100721.56;110012;1272;23147;-60
2023/08/22 03:16:05;;;;;;;12.70;3.90;;;;;;;18.23;95.67;100717.51;109993;1280;22274;-59
2023/08/22 03:18:36;;;;;;;12.40;3.80;;;;;;;18.20;95.40;100716.23;109975;1280;22207;-60
2023/08/22 03:21:07;;;;;;;9.80;3.10;;;;;;;18.16;95.33;100718.10;109975;1276;22359;-60
2023/08/22 03:23:38;;;;;;;12.70;4.70;;;;;;;18.12;95.29;100716.23;110030;1273;22528;-59
2023/08/22 03:26:10;;;;;;;11.50;3.90;;;;;;;18.10;95.65;100714.38;110049;1276;22322;-60
2023/08/22 03:28:41;;;;;;;13.40;3.90;;;;;;;18.06;95.38;100715.79;110004;1279;22331;-59
2023/08/22 03:31:12;;;;;;;15.90;5.50;;;;;;;18.02;95.75;100712.34;110039;1270;23206;-59
2023/08/22 03:33:43;;;;;;;11.70;4.20;;;;;;;18.02;96.03;100709.92;110055;1273;22161;-60
2023/08/22 03:36:13;;;;;;;10.60;4.40;;;;;;;18.00;95.91;100715.34;110043;1279;22353;-60
2023/08/22 03:38:46;;;;;;;13.00;4.40;;;;;;;17.99;95.86;100708.15;109962;1275;22265;-59
2023/08/22 03:41:17;;;;;;;18.40;5.00;;;;;;;17.98;95.86;100707.33;110006;1270;22168;-58
2023/08/22 03:43:48;;;;;;;13.10;4.80;;;;;;;17.98;96.29;100708.05;110035;1279;22902;-58
2023/08/22 03:46:19;;;;;;;12.50;4.70;;;;;;;17.99;95.91;100704.77;110024;1276;22324;-59
2023/08/22 03:48:50;;;;;;;9.10;4.20;;;;;;;17.97;95.91;100702.56;110058;1279;22199;-59
2023/08/22 03:51:21;;;;;;;10.90;4.00;;;;;;;17.94;95.71;100707.55;110045;1272;22213;-60
2023/08/22 03:53:52;;;;;;;12.00;4.40;;;;;;;17.90;95.81;100709.63;110018;1273;22276;-59
2023/08/22 03:56:23;;;;;;;14.40;4.70;;;;;;;17.88;95.90;100706.90;109968;1274;22188;-57
2023/08/22 03:58:54;;;;;;;14.80;4.30;;;;;;;17.87;95.99;100704.60;110029;1279;22833;-60
2023/08/22 04:01:25;;;;;;;12.60;4.10;;;;;;;17.86;96.17;100703.21;110004;1279;23410;-58
2023/08/22 04:03:55;;;;;;;13.50;5.40;;;;;;;17.87;96.37;100707.63;110059;1279;22192;-58
2023/08/22 04:06:26;;;;;;;12.80;4.80;;;;;;;17.86;96.96;100706.80;109978;1271;23078;-60
2023/08/22 04:08:57;;;;;;;15.10;4.40;;;;;;;17.86;96.85;100705.16;110049;1279;22250;-60
2023/08/22 04:11:28;;;;;;;10.50;3.20;;;;;;;17.85;96.53;100708.82;110005;1276;22378;-59
2023/08/22 04:13:59;;;;;;;11.30;4.40;;;;;;;17.82;96.63;100708.20;110052;1267;22230;-58
2023/08/22 04:16:30;;;;;;;14.00;5.10;;;;;;;17.81;97.19;100707.77;109976;1279;22286;-62
2023/08/22 04:19:01;;;;;;;13.40;5.10;;;;;;;17.82;97.45;100710.20;110032;1279;22215;-58
2023/08/22 04:21:32;;;;;;;18.00;6.30;;;;;;;17.82;97.75;100709.13;109960;1279;22205;-58
2023/08/22 04:24:03;;;;;;;14.40;5.70;;;;;;;17.82;97.95;100709.03;110034;1279;23369;-58
2023/08/22 04:26:34;;;;;;;12.50;5.70;;;;;;;17.84;98.14;100705.48;109707;1277;22247;-60
2023/08/22 04:29:05;;;;;;;18.70;7.50;;;;;;;17.86;98.67;100703.73;109878;1281;22261;-59
2023/08/22 04:31:37;;;;;;;15.70;7.00;;;;;;;17.89;98.67;100698.13;109745;1273;22220;-59
2023/08/22 04:34:08;;;;;;;16.90;7.70;;;;;;;17.95;98.71;100700.41;109936;1270;22222;-59
2023/08/22 04:36:38;;;;;;;18.40;8.50;;;;;;;17.99;98.76;100700.75;109903;1270;22222;-62
2023/08/22 04:39:10;;;;;;;21.30;9.20;;;;;;;18.03;98.91;100702.38;109912;1279;22138;-61
2023/08/22 04:41:41;;;;;;;21.90;8.80;;;;;;;18.08;99.05;100706.27;109924;1278;22241;-61
2023/08/22 04:44:12;;;;;;;19.40;8.30;;;;;;;18.12;98.88;100700.86;109896;1280;22270;-60
2023/08/22 04:46:43;;;;;;;21.00;8.30;;;;;;;18.18;98.83;100696.52;109913;1280;23056;-60
2023/08/22 04:49:13;;;;;;;20.80;8.40;;;;;;;18.24;98.86;100698.08;109928;1271;22304;-59
2023/08/22 04:51:44;;;;;;;17.00;8.00;;;;;;;18.28;99.01;100698.47;109924;1280;22399;-59
2023/08/22 04:54:15;;;;;;;18.20;7.00;;;;;;;18.33;98.84;100695.56;109890;1271;23439;-60
2023/08/22 04:56:46;;;;;;;20.30;8.00;;;;;;;18.38;98.86;100693.63;109884;1280;23317;-59
2023/08/22 04:59:17;;;;;;;19.80;8.10;;;;;;;18.44;98.88;100690.81;109963;1279;22314;-60
2023/08/22 05:01:48;;;;;;;17.40;7.50;;;;;;;18.48;99.02;100690.73;110016;1273;22351;-60
2023/08/22 05:04:19;;;;;;;18.80;8.60;;;;;;;18.51;99.08;100695.70;109989;1273;22192;-60
2023/08/22 05:06:50;;;;;;;16.90;8.30;;;;;;;18.55;98.90;100704.04;110000;1273;22189;-60
2023/08/22 05:09:20;;;;;;;17.60;7.60;;;;;;;18.58;99.14;100710.10;110023;1276;22291;-59
2023/08/22 05:11:52;;;;;;;16.50;7.60;;;;;;;18.64;99.08;100709.77;110014;1271;22284;-60
2023/08/22 05:14:24;;;;;;;21.30;10.60;;;;;;;18.71;99.20;100709.30;110047;1279;22333;-61
2023/08/22 05:16:55;;;;;;;19.00;8.20;;;;;;;18.77;99.29;100717.89;110050;1276;22169;-59
2023/08/22 05:19:26;;;;;;;16.10;7.90;;;;;;;18.80;99.30;100722.71;110013;1279;22319;-60
2023/08/22 05:21:57;;;;;;;17.10;7.70;;;;;;;18.84;99.24;100718.93;109998;1280;22217;-61
2023/08/22 05:24:28;;;;;;;20.90;9.10;;;;;;;18.91;99.22;100717.84;110038;1279;22367;-61
2023/08/22 05:26:58;;;;;;;19.80;7.70;;;;;;;18.98;99.28;100717.02;110034;1279;22389;-61
2023/08/22 05:29:29;;;;;;;22.00;8.60;;;;;;;19.04;99.22;100714.65;109991;1276;22386;-59
2023/08/22 05:32:00;;;;;;;18.70;8.10;;;;;;;19.11;99.28;100713.27;109999;1276;22221;-59
2023/08/22 05:34:31;;;;;;;19.30;9.10;;;;;;;19.20;99.16;100710.77;110046;1279;22201;-59
2023/08/22 05:37:03;;;;;;;17.80;8.30;;;;;;;19.28;98.75;100708.70;109992;1271;22245;-60
2023/08/22 05:39:34;;;;;;;20.30;9.20;;;;;;;19.35;98.71;100714.37;109976;1279;23737;-59
2023/08/22 05:42:05;;;;;;;20.90;8.30;;;;;;;19.43;98.68;100708.64;110026;1276;22951;-59
2023/08/22 05:44:36;;;;;;;18.40;8.40;;;;;;;19.49;98.72;100706.72;110043;1279;22369;-59
2023/08/22 05:47:09;;;;;;;17.70;7.10;;;;;;;19.55;98.59;100705.02;110048;1279;22283;-59
2023/08/22 05:49:43;;;;;;;23.90;8.40;;;;;;;19.60;98.53;100710.48;110039;1279;22229;-61
2023/08/22 05:52:13;;;;;;;15.50;7.90;;;;;;;19.66;98.29;100709.99;110049;1274;22278;-59
2023/08/22 05:54:44;;;;;;;19.80;8.40;;;;;;;19.74;98.34;100714.90;110039;1279;22178;-59
2023/08/22 05:57:15;;;;;;;18.00;7.60;;;;;;;19.83;98.04;100716.73;110034;1269;22338;-59
2023/08/22 05:59:47;;;;;;;16.30;7.40;;;;;;;19.92;98.26;100717.80;110023;1276;22163;-59
2023/08/22 06:02:17;;;;;;;19.90;7.90;;;;;;;19.99;97.91;100711.02;110036;1266;22195;-59
2023/08/22 06:04:49;;;;;;;16.80;7.30;;;;;;;20.06;97.86;100705.77;110019;1279;22150;-59
2023/08/22 06:07:20;;;;;;;15.20;6.90;;;;;;;20.15;97.90;100701.08;110053;1279;22318;-60
2023/08/22 06:09:51;;;;;;;20.00;7.70;;;;;;;20.25;98.01;100702.17;110036;1269;23402;-61
2023/08/22 06:12:22;;;;;;;21.60;8.80;;;;;;;20.33;97.64;100701.13;110047;1270;22227;-60
2023/08/22 06:14:53;;;;;;;16.00;7.50;;;;;;;20.39;97.46;100700.06;110053;1279;22403;-61
2023/08/22 06:17:24;;;;;;;19.60;8.10;;;;;;;20.48;97.18;100699.63;110023;1268;22213;-62
2023/08/22 06:19:55;;;;;;;19.90;8.30;;;;;;;20.55;96.66;100697.52;110045;1276;22179;-60
2023/08/22 06:22:26;;;;;;;19.10;9.40;;;;;;;20.61;96.47;100696.35;110038;1276;22281;-61
2023/08/22 06:24:57;;;;;;;21.90;9.70;;;;;;;20.68;96.33;100695.98;110059;1274;22166;-61
2023/08/22 06:27:28;;;;;;;18.70;8.20;;;;;;;20.75;96.06;100696.75;110034;1272;22806;-60
2023/08/22 06:30:00;;;;;;;19.50;8.90;;;;;;;20.82;95.66;100692.12;109972;1271;22276;-60
2023/08/22 06:32:31;;;;;;;20.70;8.30;;;;;;;20.87;95.68;100693.57;110009;1273;22940;-60
2023/08/22 06:35:03;;;;;;;21.40;8.20;;;;;;;20.94;95.34;100701.30;110039;1268;22182;-60
2023/08/22 06:37:34;;;;;;;21.40;8.10;;;;;;;21.00;95.01;100699.67;109979;1279;23574;-60
2023/08/22 06:40:07;;;;;;;18.60;7.20;;;;;;;21.05;94.81;100697.30;110015;1279;23007;-58
2023/08/22 06:42:38;;;;;;;17.60;8.40;;;;;;;21.11;94.72;100699.78;110043;1279;22188;-57
2023/08/22 06:45:10;;;;;;;20.80;8.30;;;;;;;21.14;94.49;100696.58;110032;1273;22327;-59
2023/08/22 06:47:41;;;;;;;16.30;6.70;;;;;;;21.20;94.55;100692.66;110042;1279;22327;-61
2023/08/22 06:50:12;;;;;;;17.30;7.20;;;;;;;21.25;94.17;100686.73;110010;1276;23865;-60
2023/08/22 06:52:43;;;;;;;14.30;6.50;;;;;;;21.31;93.94;100687.80;110073;1279;22142;-61
2023/08/22 06:55:14;;;;;;;17.30;7.00;;;;;;;21.37;94.03;100678.83;110021;1276;22328;-62
2023/08/22 06:57:45;;;;;;;16.60;7.20;;;;;;;21.45;93.98;100676.14;110006;1279;22349;-60
2023/08/22 07:00:18;;;;;;;15.90;7.00;;;;;;;21.51;93.74;100672.66;110022;1272;23121;-61
2023/08/22 07:02:49;;;;;;;21.90;9.30;;;;;;;21.58;93.40;100673.05;110029;1279;22133;-61
2023/08/22 07:05:21;;;;;;;17.70;7.20;;;;;;;21.64;92.98;100675.00;110059;1274;22849;-60
2023/08/22 07:07:52;;;;;;;17.70;6.40;;;;;;;21.70;92.69;100673.38;110022;1276;22210;-59
2023/08/22 07:10:23;;;;;;;17.20;6.70;;;;;;;21.77;92.67;100675.16;110041;1279;22191;-59
2023/08/22 07:12:54;;;;;;;16.60;6.10;;;;;;;21.84;92.28;100673.08;110010;1279;23231;-59
2023/08/22 07:15:25;;;;;;;15.20;6.70;;;;;;;21.91;92.11;100670.11;110007;1273;22320;-60
2023/08/22 07:17:57;;;;;;;15.10;5.90;;;;;;;21.99;91.92;100664.52;110005;1279;23091;-60
2023/08/22 07:20:28;;;;;;;15.70;5.40;;;;;;;22.07;91.74;100670.51;109986;1279;22155;-60
2023/08/22 07:22:59;;;;;;;13.80;5.70;;;;;;;22.14;91.54;100666.58;109962;1279;22176;-60
2023/08/22 07:25:30;;;;;;;15.50;5.90;;;;;;;22.24;91.85;100665.52;110042;1277;22332;-60
2023/08/22 07:28:01;;;;;;;15.60;5.10;;;;;;;22.32;91.02;100661.68;110031;1279;22898;-60
2023/08/22 07:30:34;;;;;;;13.40;5.20;;;;;;;22.39;91.25;100657.63;109992;1274;22224;-60
2023/08/22 07:33:06;;;;;;;15.10;5.00;;;;;;;22.48;91.07;100655.05;110004;1279;22193;-60
2023/08/22 07:35:37;;;;;;;14.40;5.30;;;;;;;22.59;91.29;100646.84;110019;1279;22215;-60
2023/08/22 07:38:08;;;;;;;15.00;4.90;;;;;;;22.72;90.70;100649.91;109992;1279;22203;-60
2023/08/22 07:40:41;;;;;;;17.40;5.30;;;;;;;22.83;90.29;100657.86;109960;1279;22157;-60
2023/08/22 07:43:12;;;;;;;19.40;5.40;;;;;;;22.92;89.98;100656.86;109999;1266;22360;-60
2023/08/22 07:45:43;;;;;;;14.30;5.70;;;;;;;23.05;89.88;100654.57;110025;1269;22301;-61
2023/08/22 07:48:15;;;;;;;14.80;5.40;;;;;;;23.16;89.24;100654.71;109973;1279;22812;-60
2023/08/22 07:50:46;;;;;;;12.90;4.90;;;;;;;23.23;88.57;100655.15;110036;1269;22195;-60
2023/08/22 07:53:18;;;;;;;17.50;5.50;;;;;;;23.30;88.49;100652.20;110026;1274;23094;-61
2023/08/22 07:55:50;;;;;;;14.90;4.60;;;;;;;23.40;88.39;100657.02;110029;1279;22186;-62
2023/08/22 07:58:29;;;;;;;13.70;5.80;;;;;;;23.49;88.07;100662.88;109971;1273;22439;-61
2023/08/22 08:01:15;;;;;;;12.20;4.90;;;;;;;23.57;87.70;100658.39;109761;1273;23601;-60
2023/08/22 08:03:49;;;;;;;13.30;5.10;;;;;;;23.67;87.43;100659.52;109829;1279;22631;-61
2023/08/22 08:06:20;;;;;;;12.50;5.00;;;;;;;23.76;87.01;100653.15;109972;1279;22369;-61
2023/08/22 08:08:52;;;;;;;13.80;5.20;;;;;;;23.83;86.59;100652.47;109959;1276;22829;-61
2023/08/22 08:11:22;;;;;;;17.50;5.70;;;;;;;23.90;86.25;100648.27;109967;1271;22269;-60
2023/08/22 08:13:53;;;;;;;10.80;4.40;;;;;;;23.97;86.28;100650.98;106723;1276;22521;-59
2023/08/22 08:16:28;;;;;;;13.00;4.90;;;;;;;24.07;85.78;100649.67;105689;1270;24086;-59
2023/08/22 08:18:59;;;;;;;13.80;5.30;;;;;;;24.15;85.64;100641.08;109999;1279;22211;-60
2023/08/22 08:21:30;;;;;;;12.40;3.90;;;;;;;24.23;85.07;100643.09;109929;1273;22190;-60
2023/08/22 08:24:02;;;;;;;13.80;4.60;;;;;;;24.29;84.42;100640.00;109901;1273;23164;-60
2023/08/22 08:26:33;;;;;;;12.20;4.30;;;;;;;24.35;84.35;100646.64;109965;1267;22357;-61
2023/08/22 08:29:06;;;;;;;12.50;3.60;;;;;;;24.41;83.33;100644.63;109954;1279;22697;-60
2023/08/22 08:31:38;;;;;;;11.70;4.20;;;;;;;24.48;83.57;100646.45;109933;1274;22406;-61
2023/08/22 08:34:09;;;;;;;14.70;4.90;;;;;;;24.57;83.13;100647.34;109957;1274;22284;-62
2023/08/22 08:36:40;;;;;;;11.60;4.50;;;;;;;24.67;82.04;100641.80;109943;1264;22210;-61
2023/08/22 08:39:11;;;;;;;9.30;3.20;;;;;;;24.76;82.40;100641.08;109971;1279;22390;-59
2023/08/22 08:41:49;;;;;;;14.30;4.00;;;;;;;24.84;81.49;100646.27;109928;1273;23094;-62
2023/08/22 08:44:21;;;;;;;11.60;4.40;;;;;;;24.89;81.48;100647.35;109947;1273;22358;-63
2023/08/22 08:46:52;;;;;;;12.70;3.70;;;;;;;24.96;80.49;100639.97;109946;1278;22233;-63
2023/08/22 08:49:24;;;;;;;11.20;3.90;;;;;;;25.01;80.39;100640.42;109937;1273;22878;-61
2023/08/22 08:51:59;;;;;;;14.10;4.70;;;;;;;25.07;80.11;100644.30;107450;1273;25322;-59
2023/08/22 08:54:34;;;;;;;12.00;3.40;;;;;;;25.15;79.99;100644.70;109856;1274;22344;-62
2023/08/22 08:57:05;;;;;;;8.80;3.50;;;;;;;25.22;79.17;100639.66;109953;1274;22156;-61
2023/08/22 08:59:36;;;;;;;8.30;3.00;;;;;;;25.23;78.71;100634.02;109954;1273;22214;-62
2023/08/22 09:02:13;;;;;;;8.30;3.10;;;;;;;25.26;78.32;100630.36;110028;1271;22996;-61
2023/08/22 09:04:44;;;;;;;9.30;3.50;;;;;;;25.35;78.42;100631.34;110019;1270;22110;-61
2023/08/22 09:07:17;;;;;;;10.00;3.30;;;;;;;25.43;78.20;100625.45;110008;1279;22206;-61
2023/08/22 09:09:49;;;;;;;9.50;3.20;;;;;;;25.50;77.68;100621.67;110017;1273;22617;-61
2023/08/22 09:12:21;;;;;;;11.30;3.20;;;;;;;25.56;77.21;100616.36;110023;1279;22197;-61
2023/08/22 09:14:52;;;;;;;9.20;3.00;;;;;;;25.61;76.70;100616.77;110016;1273;22199;-62
2023/08/22 09:17:23;;;;;;;8.40;2.80;;;;;;;25.67;77.38;100611.64;109985;1270;22335;-61
2023/08/22 09:19:54;;;;;;;10.30;3.50;;;;;;;25.75;76.91;100612.63;110006;1274;22995;-61
2023/08/22 09:22:30;;;;;;;10.70;3.00;;;;;;;25.81;76.30;100614.46;110015;1272;22128;-61
2023/08/22 09:25:03;;;;;;;14.10;3.30;;;;;;;25.87;76.22;100611.05;110040;1272;22941;-61
2023/08/22 09:27:34;;;;;;;10.20;2.70;;;;;;;25.96;76.18;100608.56;110013;1274;22146;-61
2023/08/22 09:30:07;;;;;;;10.90;2.80;;;;;;;26.05;75.61;100605.36;110009;1277;22902;-61
2023/08/22 09:32:38;;;;;;;9.50;3.30;;;;;;;26.11;75.56;100600.44;110033;1279;22176;-61
2023/08/22 09:35:09;;;;;;;10.90;3.20;;;;;;;26.18;75.43;100601.55;110012;1266;22187;-61
2023/08/22 09:37:41;;;;;;;9.70;3.50;;;;;;;26.23;74.96;100601.02;110025;1269;22399;-61
2023/08/22 09:40:16;;;;;;;11.40;3.00;;;;;;;26.28;74.84;100595.62;110012;1273;22308;-61
2023/08/22 09:42:47;;;;;;;7.20;2.30;;;;;;;26.33;74.00;100590.98;110018;1277;22911;-61
2023/08/22 09:45:20;;;;;;;8.80;2.70;;;;;;;26.33;73.73;100594.37;110033;1276;22410;-62
2023/08/22 09:47:56;;;;;;;8.80;2.40;;;;;;;26.36;73.54;100596.34;110045;1272;23407;-60
2023/08/22 09:50:32;;;;;;;8.50;2.60;;;;;;;26.40;73.25;100591.20;109986;1276;22181;-61
2023/08/22 09:53:04;;;;;;;7.60;2.20;;;;;;;26.43;73.07;100588.01;110046;1274;22197;-61
2023/08/22 09:55:37;;;;;;;11.30;3.00;;;;;;;26.45;73.00;100590.52;110014;1279;22425;-61
2023/08/22 09:58:10;;;;;;;11.40;2.80;;;;;;;26.49;72.51;100588.66;110014;1273;22259;-61
2023/08/22 10:00:41;;;;;;;8.10;2.50;;;;;;;26.51;72.38;100586.98;110019;1273;22243;-61
2023/08/22 10:03:14;;;;;;;8.90;2.60;;;;;;;26.55;71.82;100582.02;110013;1273;23084;-61
2023/08/22 10:05:45;;;;;;;8.60;2.50;;;;;;;26.59;70.83;100584.02;110037;1277;22267;-61
2023/08/22 10:08:16;;;;;;;10.00;2.20;;;;;;;26.65;71.15;100582.64;110028;1279;22183;-61
2023/08/22 10:10:48;;;;;;;10.80;2.80;;;;;;;26.72;71.46;100576.87;110005;1278;22196;-62
2023/08/22 10:13:21;;;;;;;6.60;2.40;;;;;;;26.82;70.79;100580.86;109981;1274;22392;-61
2023/08/22 10:15:52;;;;;;;10.30;2.60;;;;;;;26.89;70.46;100571.13;110030;1279;22244;-61
2023/08/22 10:18:27;;;;;;;9.40;2.80;;;;;;;26.94;70.08;100570.93;110062;1279;22206;-61
2023/08/22 10:20:59;;;;;;;10.10;3.10;;;;;;;26.99;69.51;100564.02;110022;1267;22214;-61
2023/08/22 10:23:58;;;;;;;7.30;2.20;;;;;;;27.01;69.14;100564.76;110019;1270;22727;-62
2023/08/22 10:26:50;;;;;;;10.70;2.20;;;;;;;27.03;68.55;100562.25;109983;1277;22198;-61
2023/08/22 10:29:21;;;;;;;7.40;2.50;;;;;;;27.06;67.99;100560.44;110025;1276;22895;-61
2023/08/22 10:32:20;;;;;;;8.50;2.80;;;;;;;27.10;67.93;100555.92;110013;1279;22182;-61
2023/08/22 10:35:25;;;;;;;11.90;2.80;;;;;;;27.17;67.64;100552.25;110003;1274;22214;-62
2023/08/22 10:37:57;;;;;;;9.10;2.30;;;;;;;27.26;67.42;100552.25;109984;1276;22216;-61
2023/08/22 10:40:33;;;;;;;10.20;2.90;;;;;;;27.36;67.72;100545.63;109990;1276;23099;-61
2023/08/22 10:43:12;;;;;;;8.30;3.00;;;;;;;27.45;67.09;100548.29;110048;1279;22153;-60
2023/08/22 10:45:50;;;;;;;12.60;2.90;;;;;;;27.52;66.64;100545.16;110016;1276;23033;-61
2023/08/22 10:48:23;;;;;;;10.70;2.80;;;;;;;27.59;66.57;100546.60;110023;1271;22181;-62
2023/08/22 10:51:04;;;;;;;10.20;3.60;;;;;;;27.63;66.77;100542.80;109991;1280;22923;-62
2023/08/22 10:53:43;;;;;;;11.90;3.30;;;;;;;27.69;66.67;100540.23;110002;1274;22286;-61
2023/08/22 10:56:24;;;;;;;9.80;3.40;;;;;;;27.73;65.96;100534.00;110024;1264;22180;-61
2023/08/22 10:59:03;;;;;;;9.00;2.90;;;;;;;27.77;65.11;100536.81;110008;1279;22191;-61
2023/08/22 11:01:34;;;;;;;9.70;2.80;;;;;;;27.79;64.54;100533.23;109999;1279;22218;-61
2023/08/22 11:04:08;;;;;;;8.80;3.00;;;;;;;27.81;64.72;100532.48;109979;1274;22996;-61
2023/08/22 11:06:40;;;;;;;8.80;2.40;;;;;;;27.84;64.27;100537.79;110011;1279;23025;-61
2023/08/22 11:09:13;;;;;;;12.90;3.00;;;;;;;27.85;63.80;100528.37;110004;1265;22252;-61
2023/08/22 11:11:44;;;;;;;7.90;2.70;;;;;;;27.87;63.64;100529.84;110014;1276;23035;-62
2023/08/22 11:14:15;;;;;;;8.30;2.80;;;;;;;27.91;63.32;100524.88;109976;1268;22341;-61
2023/08/22 11:16:47;;;;;;;7.20;2.30;;;;;;;27.96;62.99;100530.18;110010;1269;22916;-61
2023/08/22 11:19:21;;;;;;;8.70;2.60;;;;;;;28.02;62.21;100526.89;109968;1264;22352;-62
2023/08/22 11:21:53;;;;;;;17.20;7.40;;;;;;;28.09;62.55;100522.63;109838;1276;202853;-61
2023/08/22 11:24:24;;;;;;;14.00;4.00;;;;;;;28.15;61.54;100526.54;109983;1276;22193;-62
2023/08/22 11:26:55;;;;;;;11.30;3.10;;;;;;;28.20;61.59;100521.18;110010;1273;22395;-62
2023/08/22 11:29:26;;;;;;;8.70;2.70;;;;;;;28.30;62.05;100522.56;110012;1273;22447;-62
2023/08/22 11:31:57;;;;;;;10.10;2.30;;;;;;;28.41;61.57;100514.94;110021;1273;22904;-62